Flight Briefing for CMB854

Departure Arrival
RAFO Thumrait (OOTH)
Click to view FAA NOTAMS
Bahrain International Airport (OBBI)
Click to view FAA NOTAMS
Departure Time Arrival Time
N/A N/A
Aircraft Distance
B757-200SF 548nm
Departure METAR Arrival METAR
No METAR available for OOTH. OBBI 190730Z 30013KT CAVOK 21/10 Q1019 NOSIG
Suggested Route
GOBRO UT100 KUTNA UL564 BAT UL564 DOH R659 EMISA B457 DENVO DENVO1


View recent IFR Routes data
Notes
USTRANSCOM CONTRACT FLIGHT

Charts and Procedures

Charts for OOTH
No chart available
Charts for OBBI
No chart available

Windy.com Weather Map